Time;durP1;ratioP1;P1;durP2;ratioP2;P2;SDS_P1;SDS_P2;PMS_P1;PMS_P2;Temp;Humidity;BMP_temperature;BMP_pressure;BME280_temperature;BME280_humidity;BME280_pressure;Samples;Min_cycle;Max_cycle;Signal;HPM_P1;HPM_P2
2022/08/15 00:01:42;;;;;;;;;;;30.70;43.70;;;;;;5094901;28;20390;-62
2022/08/15 00:04:08;;;;;;;;;;;30.70;43.60;;;;;;5111430;28;19999;-62
2022/08/15 00:06:39;;;;;;;;;;;30.70;43.50;;;;;;5087146;28;19912;-62
2022/08/15 00:09:05;;;;;;;;;;;30.70;43.50;;;;;;5088550;28;20387;-62
2022/08/15 00:11:36;;;;;;;;;;;30.60;43.60;;;;;;5089305;28;19943;-62
2022/08/15 00:14:06;;;;;;;;;;;30.70;43.70;;;;;;5093934;28;20295;-62
2022/08/15 00:16:35;;;;;;;;;;;30.60;43.50;;;;;;5111132;28;20488;-62
2022/08/15 00:19:04;;;;;;;;;;;30.60;43.50;;;;;;5065257;28;20279;-62
2022/08/15 00:21:29;;;;;;;;;;;30.60;43.70;;;;;;5075819;28;20395;-62
2022/08/15 00:23:56;;;;;;;;;;;30.70;43.70;;;;;;5111394;28;20045;-62
2022/08/15 00:26:22;;;;;;;;;;;30.60;43.60;;;;;;5112056;28;20286;-62
2022/08/15 00:28:48;;;;;;;;;;;30.70;43.70;;;;;;5105551;28;20402;-62
2022/08/15 00:31:13;;;;;;;;;;;30.60;43.50;;;;;;5111509;28;19907;-62
2022/08/15 00:33:39;;;;;;;;;;;30.60;43.70;;;;;;5093256;28;19916;-61
2022/08/15 00:36:07;;;;;;;;;;;30.60;43.60;;;;;;5112263;28;19916;-62
2022/08/15 00:38:33;;;;;;;;;;;30.60;43.60;;;;;;5074590;28;19919;-62
2022/08/15 00:43:45;;;;;;;;;;;30.60;44.40;;;;;;5094515;28;19919;-62
2022/08/15 00:46:10;;;;;;;;;;;30.60;43.80;;;;;;5111251;28;19912;-62
2022/08/15 00:48:42;;;;;;;;;;;30.60;43.90;;;;;;5111624;28;20261;-61
2022/08/15 00:51:28;;;;;;;;;;;30.60;43.90;;;;;;5112580;28;19914;-62
2022/08/15 00:53:55;;;;;;;;;;;30.60;43.90;;;;;;5109339;28;19916;-62
2022/08/15 00:56:21;;;;;;;;;;;30.50;43.90;;;;;;5092752;28;20006;-62
2022/08/15 00:58:47;;;;;;;;;;;30.50;43.90;;;;;;5092532;28;20023;-62
2022/08/15 01:01:12;;;;;;;;;;;30.50;44.00;;;;;;5094025;28;20379;-62
2022/08/15 01:03:40;;;;;;;;;;;30.50;43.90;;;;;;5110759;28;19918;-62
2022/08/15 01:06:06;;;;;;;;;;;30.50;43.90;;;;;;5094169;28;19916;-61
2022/08/15 01:08:32;;;;;;;;;;;30.50;43.90;;;;;;5090067;28;20393;-62
2022/08/15 01:10:58;;;;;;;;;;;30.50;43.80;;;;;;5093991;28;19994;-62
2022/08/15 01:13:24;;;;;;;;;;;30.60;43.90;;;;;;5110812;28;20371;-62
2022/08/15 01:15:49;;;;;;;;;;;30.50;44.00;;;;;;5091472;28;20402;-62
2022/08/15 01:18:15;;;;;;;;;;;30.50;44.00;;;;;;5093449;28;20416;-62
2022/08/15 01:20:40;;;;;;;;;;;30.50;43.90;;;;;;5111153;28;19912;-62
2022/08/15 01:23:12;;;;;;;;;;;30.50;44.00;;;;;;5091751;28;20401;-62
2022/08/15 01:25:39;;;;;;;;;;;30.50;44.00;;;;;;5110866;28;19998;-62
2022/08/15 01:28:08;;;;;;;;;;;30.40;43.90;;;;;;5093560;28;19911;-62
2022/08/15 01:30:39;;;;;;;;;;;30.50;44.00;;;;;;5075230;28;19926;-61
2022/08/15 01:33:05;;;;;;;;;;;30.50;44.10;;;;;;5086028;28;20294;-62
2022/08/15 01:35:31;;;;;;;;;;;30.50;44.10;;;;;;5076156;28;19919;-61
2022/08/15 01:37:57;;;;;;;;;;;30.40;44.00;;;;;;5109410;28;19915;-62
2022/08/15 01:40:26;;;;;;;;;;;30.40;44.10;;;;;;5093368;28;19960;-62
2022/08/15 01:42:52;;;;;;;;;;;30.40;44.10;;;;;;5096340;28;19912;-61
2022/08/15 01:45:18;;;;;;;;;;;30.40;44.20;;;;;;5097299;28;19952;-62
2022/08/15 01:47:48;;;;;;;;;;;30.40;44.30;;;;;;5113436;28;19919;-62
2022/08/15 01:50:15;;;;;;;;;;;30.30;44.40;;;;;;5078428;28;20268;-62
2022/08/15 01:52:53;;;;;;;;;;;30.30;44.50;;;;;;5075973;28;19962;-62
2022/08/15 01:55:20;;;;;;;;;;;30.30;44.40;;;;;;5094487;28;19919;-62
2022/08/15 01:57:45;;;;;;;;;;;30.30;44.50;;;;;;5093813;28;19966;-62
2022/08/15 02:00:11;;;;;;;;;;;30.30;44.50;;;;;;5097300;28;20313;-62
2022/08/15 02:02:36;;;;;;;;;;;30.30;44.50;;;;;;5094026;28;20006;-62
2022/08/15 02:05:02;;;;;;;;;;;30.30;44.50;;;;;;5093998;28;19967;-62
2022/08/15 02:07:28;;;;;;;;;;;30.30;44.40;;;;;;5093202;28;19912;-62
2022/08/15 02:09:54;;;;;;;;;;;30.30;44.50;;;;;;5092928;28;19911;-62
2022/08/15 02:12:20;;;;;;;;;;;30.30;44.40;;;;;;5096380;28;20022;-62
2022/08/15 02:14:46;;;;;;;;;;;30.30;44.40;;;;;;5096329;28;19915;-62
2022/08/15 02:17:12;;;;;;;;;;;30.40;44.60;;;;;;5114003;28;20047;-62
2022/08/15 02:19:37;;;;;;;;;;;30.30;44.50;;;;;;5095061;27;19934;-62
2022/08/15 02:22:04;;;;;;;;;;;30.30;44.60;;;;;;5089559;28;20014;-61
2022/08/15 02:24:29;;;;;;;;;;;30.30;44.60;;;;;;5096171;28;19959;-61
2022/08/15 02:26:55;;;;;;;;;;;30.30;44.70;;;;;;5113646;28;20324;-62
2022/08/15 02:29:25;;;;;;;;;;;30.30;44.70;;;;;;5107567;28;20371;-62
2022/08/15 02:31:51;;;;;;;;;;;30.30;44.80;;;;;;5106819;28;19912;-62
2022/08/15 02:34:17;;;;;;;;;;;30.20;44.70;;;;;;5094668;28;19912;-62
2022/08/15 02:36:42;;;;;;;;;;;30.20;44.80;;;;;;5113967;28;19964;-62
2022/08/15 02:39:08;;;;;;;;;;;30.20;44.80;;;;;;5076190;28;20287;-62
2022/08/15 02:41:35;;;;;;;;;;;30.20;44.90;;;;;;5113366;28;19925;-62
2022/08/15 02:44:01;;;;;;;;;;;30.20;45.00;;;;;;5096353;28;19908;-62
2022/08/15 02:46:27;;;;;;;;;;;30.20;45.00;;;;;;5113970;28;19912;-62
2022/08/15 02:48:53;;;;;;;;;;;30.20;45.00;;;;;;5096434;28;19976;-62
2022/08/15 02:51:18;;;;;;;;;;;30.20;44.90;;;;;;5094274;28;19912;-62
2022/08/15 02:53:45;;;;;;;;;;;30.20;45.20;;;;;;5093593;28;19915;-62
2022/08/15 02:56:10;;;;;;;;;;;30.20;45.20;;;;;;5111475;28;19915;-61
2022/08/15 02:58:36;;;;;;;;;;;30.10;45.10;;;;;;5101972;28;19920;-62
2022/08/15 03:01:06;;;;;;;;;;;30.10;45.20;;;;;;5113785;28;19916;-62
2022/08/15 03:03:31;;;;;;;;;;;30.10;45.20;;;;;;5093954;28;19919;-61
2022/08/15 03:05:57;;;;;;;;;;;30.00;45.30;;;;;;5096462;28;20375;-62
2022/08/15 03:08:23;;;;;;;;;;;30.00;45.40;;;;;;5112780;28;20288;-62
2022/08/15 03:10:48;;;;;;;;;;;30.10;45.40;;;;;;5093359;28;19919;-61
2022/08/15 03:13:14;;;;;;;;;;;30.10;45.40;;;;;;5085088;28;20337;-61
2022/08/15 03:15:45;;;;;;;;;;;30.10;45.50;;;;;;5075679;28;19919;-62
2022/08/15 03:18:10;;;;;;;;;;;30.00;45.40;;;;;;5068398;28;19912;-62
2022/08/15 03:20:36;;;;;;;;;;;30.00;45.40;;;;;;5075640;28;19908;-62
2022/08/15 03:23:04;;;;;;;;;;;30.00;45.40;;;;;;5073307;28;20475;-62
2022/08/15 03:25:30;;;;;;;;;;;30.00;45.50;;;;;;5074936;28;19916;-61
2022/08/15 03:27:55;;;;;;;;;;;30.00;45.70;;;;;;5072023;28;19928;-62
2022/08/15 03:30:21;;;;;;;;;;;30.00;45.60;;;;;;5072549;28;20395;-62
2022/08/15 03:32:48;;;;;;;;;;;30.00;45.60;;;;;;5092726;28;20322;-62
2022/08/15 03:35:14;;;;;;;;;;;30.00;45.50;;;;;;5074508;28;19975;-62
2022/08/15 03:37:39;;;;;;;;;;;30.00;45.70;;;;;;5075255;28;19952;-62
2022/08/15 03:40:05;;;;;;;;;;;30.00;45.70;;;;;;5072407;28;19956;-62
2022/08/15 03:42:30;;;;;;;;;;;29.90;45.70;;;;;;5070628;28;20011;-61
2022/08/15 03:44:56;;;;;;;;;;;29.90;45.70;;;;;;5072927;28;19912;-62
2022/08/15 03:47:21;;;;;;;;;;;29.90;45.80;;;;;;5058074;28;19908;-62
2022/08/15 03:49:47;;;;;;;;;;;29.90;45.80;;;;;;5073592;28;19912;-62
2022/08/15 03:52:13;;;;;;;;;;;29.90;45.80;;;;;;5069490;28;19940;-62
2022/08/15 03:54:38;;;;;;;;;;;29.90;45.80;;;;;;5074081;28;20053;-62
2022/08/15 03:57:03;;;;;;;;;;;29.90;45.70;;;;;;5071543;28;19919;-62
2022/08/15 03:59:30;;;;;;;;;;;29.90;45.80;;;;;;5088321;28;20388;-61
2022/08/15 04:01:55;;;;;;;;;;;29.90;45.70;;;;;;5091023;28;19921;-62
2022/08/15 04:04:21;;;;;;;;;;;29.90;45.90;;;;;;5089607;28;20053;-61
2022/08/15 04:06:46;;;;;;;;;;;29.90;45.90;;;;;;5090768;28;20010;-62
2022/08/15 04:09:12;;;;;;;;;;;29.90;45.90;;;;;;5073586;28;19915;-62
2022/08/15 04:11:37;;;;;;;;;;;29.90;46.10;;;;;;5090940;28;19919;-62
2022/08/15 04:14:06;;;;;;;;;;;29.80;46.00;;;;;;5074337;28;19920;-62
2022/08/15 04:16:32;;;;;;;;;;;29.90;46.10;;;;;;5070919;28;19919;-61
2022/08/15 04:18:58;;;;;;;;;;;29.80;46.00;;;;;;5091519;28;19986;-62
2022/08/15 04:21:23;;;;;;;;;;;29.90;46.10;;;;;;5091727;28;20376;-62
2022/08/15 04:23:49;;;;;;;;;;;29.90;45.90;;;;;;5092852;28;20370;-62
2022/08/15 04:26:14;;;;;;;;;;;29.90;46.00;;;;;;5072411;28;19977;-62
2022/08/15 04:28:40;;;;;;;;;;;29.90;46.00;;;;;;5073392;28;19941;-62
2022/08/15 04:31:07;;;;;;;;;;;29.80;46.10;;;;;;5072911;28;19970;-62
2022/08/15 04:33:32;;;;;;;;;;;29.80;46.20;;;;;;5071870;28;19961;-62
2022/08/15 04:35:59;;;;;;;;;;;29.80;46.20;;;;;;5073906;28;19908;-62
2022/08/15 04:38:24;;;;;;;;;;;29.80;46.20;;;;;;5064816;28;20015;-62
2022/08/15 04:40:50;;;;;;;;;;;29.80;46.20;;;;;;5091870;28;20375;-62
2022/08/15 04:43:15;;;;;;;;;;;29.80;46.20;;;;;;5090292;28;20164;-62
2022/08/15 04:45:41;;;;;;;;;;;29.80;46.30;;;;;;5072060;28;19912;-61
2022/08/15 04:48:07;;;;;;;;;;;29.80;46.20;;;;;;5072540;28;19987;-62
2022/08/15 04:50:34;;;;;;;;;;;29.70;46.10;;;;;;5072533;28;19947;-61
2022/08/15 04:52:59;;;;;;;;;;;29.70;46.10;;;;;;5072882;28;19920;-61
2022/08/15 04:55:25;;;;;;;;;;;29.70;46.30;;;;;;5070963;28;19932;-61
2022/08/15 04:57:51;;;;;;;;;;;29.80;46.40;;;;;;5090493;28;19919;-61
2022/08/15 05:00:18;;;;;;;;;;;29.60;46.40;;;;;;5071897;28;19947;-62
2022/08/15 05:02:56;;;;;;;;;;;29.70;46.50;;;;;;5071930;28;19912;-62
2022/08/15 05:05:21;;;;;;;;;;;29.70;46.40;;;;;;5072729;28;19908;-61
2022/08/15 05:07:47;;;;;;;;;;;29.60;46.50;;;;;;5070231;28;19922;-62
2022/08/15 05:10:12;;;;;;;;;;;29.60;46.60;;;;;;5091223;28;19912;-62
2022/08/15 05:12:38;;;;;;;;;;;29.60;46.60;;;;;;5072205;28;19916;-61
2022/08/15 05:15:03;;;;;;;;;;;29.60;46.60;;;;;;5087118;28;19923;-61
2022/08/15 05:17:29;;;;;;;;;;;29.60;46.60;;;;;;5070136;28;20003;-62
2022/08/15 05:19:54;;;;;;;;;;;29.60;46.60;;;;;;5089078;28;19978;-61
2022/08/15 05:22:20;;;;;;;;;;;29.60;46.60;;;;;;5089459;28;19912;-61
2022/08/15 05:24:45;;;;;;;;;;;29.60;46.70;;;;;;5087641;28;19916;-61
2022/08/15 05:27:11;;;;;;;;;;;29.60;46.70;;;;;;5091221;28;19918;-61
2022/08/15 05:29:37;;;;;;;;;;;29.60;46.70;;;;;;5084568;28;20322;-62
2022/08/15 05:32:05;;;;;;;;;;;29.60;46.70;;;;;;5088346;28;19960;-61
2022/08/15 05:34:30;;;;;;;;;;;29.60;46.70;;;;;;5072504;28;19912;-61
2022/08/15 05:36:56;;;;;;;;;;;29.60;46.70;;;;;;5090247;28;19912;-61
2022/08/15 05:39:25;;;;;;;;;;;29.60;46.90;;;;;;5085042;28;19942;-61
2022/08/15 05:41:58;;;;;;;;;;;29.50;46.90;;;;;;5086227;28;19916;-61
2022/08/15 05:44:41;;;;;;;;;;;29.60;47.00;;;;;;5069511;28;20373;-61
2022/08/15 05:47:19;;;;;;;;;;;29.60;47.10;;;;;;5087187;28;19923;-62
2022/08/15 05:49:51;;;;;;;;;;;29.60;47.00;;;;;;5087609;28;19920;-61
2022/08/15 05:52:25;;;;;;;;;;;29.60;47.10;;;;;;5080580;28;19920;-62
2022/08/15 05:54:56;;;;;;;;;;;29.50;47.00;;;;;;5079163;28;19985;-61
2022/08/15 05:57:26;;;;;;;;;;;29.50;47.10;;;;;;5085228;28;20449;-62
2022/08/15 05:59:51;;;;;;;;;;;29.50;47.20;;;;;;5083879;28;19935;-62
2022/08/15 06:02:18;;;;;;;;;;;29.50;47.30;;;;;;5087375;28;20006;-61
2022/08/15 06:04:53;;;;;;;;;;;29.40;47.40;;;;;;5081821;28;19912;-61
2022/08/15 06:07:19;;;;;;;;;;;29.40;47.60;;;;;;5088080;28;19989;-61
2022/08/15 06:10:01;;;;;;;;;;;29.50;47.60;;;;;;5085000;28;19912;-62
2022/08/15 06:12:32;;;;;;;;;;;29.40;47.70;;;;;;5080421;28;19961;-61
2022/08/15 06:15:03;;;;;;;;;;;29.40;47.60;;;;;;5076523;28;19919;-62
2022/08/15 06:17:32;;;;;;;;;;;29.50;47.70;;;;;;5082420;28;20386;-61
2022/08/15 06:19:59;;;;;;;;;;;29.40;47.70;;;;;;5091310;28;19912;-60
2022/08/15 06:22:24;;;;;;;;;;;29.40;47.70;;;;;;5089488;28;20450;-61
2022/08/15 06:24:56;;;;;;;;;;;29.40;48.00;;;;;;5110303;28;19916;-61
2022/08/15 06:27:33;;;;;;;;;;;29.40;47.90;;;;;;5111239;28;19908;-61
2022/08/15 06:29:58;;;;;;;;;;;29.40;48.00;;;;;;5092608;28;19966;-61
2022/08/15 06:32:42;;;;;;;;;;;29.40;48.00;;;;;;5093754;28;20450;-62
2022/08/15 06:35:09;;;;;;;;;;;29.30;48.20;;;;;;5112801;28;19915;-61
2022/08/15 06:37:54;;;;;;;;;;;29.30;48.30;;;;;;5110381;28;20380;-61
2022/08/15 06:40:25;;;;;;;;;;;29.30;48.50;;;;;;5109403;28;19920;-62
2022/08/15 06:42:51;;;;;;;;;;;29.30;48.40;;;;;;5112984;28;19911;-61
2022/08/15 06:45:18;;;;;;;;;;;29.30;48.50;;;;;;5077389;28;19965;-61
2022/08/15 06:47:44;;;;;;;;;;;29.20;48.70;;;;;;5075312;28;19912;-62
2022/08/15 06:50:12;;;;;;;;;;;29.20;49.00;;;;;;5109770;28;19965;-61
2022/08/15 06:52:37;;;;;;;;;;;29.20;48.90;;;;;;5095464;28;19920;-62
2022/08/15 06:55:03;;;;;;;;;;;29.20;49.00;;;;;;5103082;28;20276;-61
2022/08/15 06:57:47;;;;;;;;;;;29.20;49.10;;;;;;5094279;28;19919;-62
2022/08/15 07:00:15;;;;;;;;;;;29.20;49.30;;;;;;5075372;28;19920;-61
2022/08/15 07:02:59;;;;;;;;;;;29.20;49.20;;;;;;5091920;28;20018;-61
2022/08/15 07:05:30;;;;;;;;;;;29.20;49.30;;;;;;5090326;28;19919;-62
2022/08/15 07:07:58;;;;;;;;;;;29.20;49.90;;;;;;5092232;28;19920;-62
2022/08/15 07:10:40;;;;;;;;;;;29.00;50.30;;;;;;5093933;28;20398;-62
2022/08/15 07:13:10;;;;;;;;;;;28.90;50.30;;;;;;5090215;28;19929;-62
2022/08/15 07:15:46;;;;;;;;;;;29.00;50.50;;;;;;5101742;27;19912;-62
2022/08/15 07:18:26;;;;;;;;;;;29.00;50.20;;;;;;5089726;28;20398;-62
2022/08/15 07:20:59;;;;;;;;;;;29.10;50.40;;;;;;5106082;27;20384;-62
2022/08/15 07:23:26;;;;;;;;;;;29.10;50.60;;;;;;5110197;28;19916;-62
2022/08/15 07:25:52;;;;;;;;;;;29.10;50.60;;;;;;5091121;28;19911;-63
2022/08/15 07:28:19;;;;;;;;;;;29.10;50.40;;;;;;5093451;28;20382;-62
2022/08/15 07:30:47;;;;;;;;;;;29.10;50.50;;;;;;5086834;28;19916;-63
2022/08/15 07:33:45;;;;;;;;;;;29.10;50.60;;;;;;5070284;28;19949;-63
2022/08/15 07:36:15;;;;;;;;;;;29.10;51.10;;;;;;5054707;28;19943;-62
2022/08/15 07:38:41;;;;;;;;;;;29.10;50.80;;;;;;5085713;28;19923;-62
2022/08/15 07:41:14;;;;;;;;;;;29.10;50.60;;;;;;5093402;28;19916;-63
2022/08/15 07:43:40;;;;;;;;;;;29.10;50.70;;;;;;5089154;28;20380;-63
2022/08/15 07:46:10;;;;;;;;;;;29.20;50.70;;;;;;5090396;28;19945;-63
2022/08/15 07:48:35;;;;;;;;;;;29.20;50.50;;;;;;5093013;28;19916;-63
2022/08/15 07:51:15;;;;;;;;;;;29.20;50.80;;;;;;5090816;28;20056;-62
2022/08/15 07:53:56;;;;;;;;;;;29.20;50.80;;;;;;5089450;28;19912;-63
2022/08/15 07:56:22;;;;;;;;;;;29.20;50.60;;;;;;5109934;28;19951;-63
2022/08/15 07:58:48;;;;;;;;;;;29.20;50.80;;;;;;5090405;28;20414;-62
2022/08/15 08:01:14;;;;;;;;;;;29.10;50.90;;;;;;5072522;28;19912;-64
2022/08/15 08:03:40;;;;;;;;;;;29.10;50.70;;;;;;5109339;28;19919;-63
2022/08/15 08:06:11;;;;;;;;;;;29.20;50.60;;;;;;5111145;28;19912;-62
2022/08/15 08:08:38;;;;;;;;;;;29.30;50.50;;;;;;5074406;28;20367;-63
2022/08/15 08:11:06;;;;;;;;;;;29.30;50.50;;;;;;5093229;28;19916;-63
2022/08/15 08:13:35;;;;;;;;;;;29.30;50.50;;;;;;5089028;28;20259;-62
2022/08/15 08:16:24;;;;;;;;;;;29.30;50.50;;;;;;5108266;28;19922;-63
2022/08/15 08:19:19;;;;;;;;;;;29.30;50.50;;;;;;5073307;28;19926;-62
2022/08/15 08:21:57;;;;;;;;;;;29.30;50.50;;;;;;5089477;28;20004;-63
2022/08/15 08:24:23;;;;;;;;;;;29.20;50.40;;;;;;5093718;28;19918;-63
2022/08/15 08:26:54;;;;;;;;;;;29.20;50.40;;;;;;5106883;28;19946;-64
2022/08/15 08:29:23;;;;;;;;;;;29.30;50.30;;;;;;5092393;28;19977;-61
2022/08/15 08:32:15;;;;;;;;;;;29.40;50.20;;;;;;5109723;28;19918;-63
2022/08/15 08:34:40;;;;;;;;;;;29.40;50.20;;;;;;5096739;28;19932;-64
2022/08/15 08:37:15;;;;;;;;;;;29.30;50.30;;;;;;5108508;28;19920;-63
2022/08/15 08:41:24;;;;;;;;;;;29.30;50.30;;;;;;5107106;28;19931;-63
2022/08/15 08:43:02;;;;;;;;;;;29.30;50.30;;;;;;5102234;28;20644;-62
2022/08/15 08:45:44;;;;;;;;;;;29.40;50.30;;;;;;5104633;28;19916;-64
2022/08/15 08:48:16;;;;;;;;;;;29.40;50.40;;;;;;5109368;28;19919;-64
2022/08/15 08:50:44;;;;;;;;;;;29.50;50.30;;;;;;5093349;28;19912;-64
2022/08/15 08:53:16;;;;;;;;;;;29.50;50.10;;;;;;5067193;28;19920;-63
2022/08/15 08:55:52;;;;;;;;;;;29.60;50.00;;;;;;5106639;28;20284;-62
2022/08/15 08:58:38;;;;;;;;;;;29.60;49.90;;;;;;5092955;28;19908;-62
2022/08/15 09:01:07;;;;;;;;;;;29.60;49.90;;;;;;5089868;28;19969;-63
2022/08/15 09:03:36;;;;;;;;;;;29.70;49.60;;;;;;5103929;28;19916;-63
2022/08/15 09:06:02;;;;;;;;;;;29.80;49.30;;;;;;5090150;28;19912;-63
2022/08/15 09:08:32;;;;;;;;;;;29.90;49.40;;;;;;5090262;28;19920;-63
2022/08/15 09:11:10;;;;;;;;;;;29.90;49.30;;;;;;5089488;28;20345;-63
2022/08/15 09:13:36;;;;;;;;;;;29.90;49.10;;;;;;5103422;28;20485;-62
2022/08/15 09:16:10;;;;;;;;;;;29.90;49.00;;;;;;5092612;28;20283;-63
2022/08/15 09:18:40;;;;;;;;;;;29.90;48.90;;;;;;5107523;28;19915;-63
2022/08/15 09:21:05;;;;;;;;;;;29.90;48.90;;;;;;5089913;28;19918;-62
2022/08/15 09:23:34;;;;;;;;;;;29.90;49.00;;;;;;5108027;28;20294;-63
2022/08/15 09:26:08;;;;;;;;;;;29.90;49.10;;;;;;5108532;28;19927;-62
2022/08/15 09:28:37;;;;;;;;;;;30.00;49.00;;;;;;5089221;28;20003;-64
2022/08/15 09:31:13;;;;;;;;;;;30.10;48.80;;;;;;5090482;28;19922;-63
2022/08/15 09:34:02;;;;;;;;;;;30.00;48.80;;;;;;5085948;28;20020;-63
2022/08/15 09:36:33;;;;;;;;;;;30.00;48.90;;;;;;5091995;28;19912;-61
2022/08/15 09:39:07;;;;;;;;;;;30.10;49.00;;;;;;5087607;28;20439;-63
2022/08/15 09:41:37;;;;;;;;;;;30.10;49.50;;;;;;5086404;28;19959;-63
2022/08/15 09:44:20;;;;;;;;;;;30.10;48.80;;;;;;5105824;28;19916;-62
2022/08/15 09:46:54;;;;;;;;;;;30.10;48.90;;;;;;5086488;28;19969;-63
2022/08/15 09:49:41;;;;;;;;;;;30.10;48.70;;;;;;5109712;28;19920;-63
2022/08/15 09:52:11;;;;;;;;;;;30.10;48.60;;;;;;5108414;28;19911;-63
2022/08/15 09:54:46;;;;;;;;;;;30.30;48.60;;;;;;5103648;28;19930;-63
2022/08/15 09:57:18;;;;;;;;;;;30.30;48.40;;;;;;5087798;28;19913;-63
2022/08/15 09:59:43;;;;;;;;;;;30.30;48.10;;;;;;5107309;28;19924;-63
2022/08/15 10:02:31;;;;;;;;;;;30.40;48.10;;;;;;5090170;28;20006;-63
2022/08/15 10:04:57;;;;;;;;;;;30.40;47.90;;;;;;5116282;27;19912;-64
2022/08/15 10:07:40;;;;;;;;;;;30.40;47.50;;;;;;5112713;28;19918;-63
2022/08/15 10:10:11;;;;;;;;;;;30.50;47.40;;;;;;5106347;28;19916;-63
2022/08/15 10:12:37;;;;;;;;;;;30.50;47.40;;;;;;5108714;27;19997;-62
2022/08/15 10:15:24;;;;;;;;;;;30.50;47.40;;;;;;5089718;28;20312;-64
2022/08/15 10:17:51;;;;;;;;;;;30.60;47.30;;;;;;5056473;28;19923;-63
2022/08/15 10:20:16;;;;;;;;;;;30.60;47.30;;;;;;5088215;28;19924;-63
2022/08/15 10:22:52;;;;;;;;;;;30.60;47.10;;;;;;5089646;28;19961;-63
2022/08/15 10:25:20;;;;;;;;;;;30.70;47.20;;;;;;5068609;28;20003;-62
2022/08/15 10:27:52;;;;;;;;;;;30.60;47.00;;;;;;5093902;28;19927;-63
2022/08/15 10:30:18;;;;;;;;;;;30.70;47.10;;;;;;5069943;28;19946;-70
2022/08/15 10:32:43;;;;;;;;;;;30.70;47.00;;;;;;5066667;28;19912;-63
2022/08/15 10:35:09;;;;;;;;;;;30.70;46.90;;;;;;5090286;28;19912;-64
2022/08/15 10:37:40;;;;;;;;;;;30.70;46.70;;;;;;5090686;28;20010;-63
2022/08/15 10:40:15;;;;;;;;;;;30.80;46.70;;;;;;5088247;28;19922;-63
2022/08/15 10:42:47;;;;;;;;;;;30.80;46.60;;;;;;5072089;28;19922;-62
2022/08/15 10:45:15;;;;;;;;;;;30.80;46.50;;;;;;5089222;28;20006;-63
2022/08/15 10:47:41;;;;;;;;;;;30.80;46.70;;;;;;5064568;28;20093;-61
2022/08/15 10:50:16;;;;;;;;;;;30.70;46.70;;;;;;5070728;28;19927;-63
2022/08/15 10:53:13;;;;;;;;;;;30.60;46.80;;;;;;5085109;28;19917;-63
2022/08/15 10:55:39;;;;;;;;;;;30.60;47.00;;;;;;5068576;28;20296;-63
2022/08/15 10:58:09;;;;;;;;;;;30.70;46.90;;;;;;5090859;28;19938;-62
2022/08/15 11:00:53;;;;;;;;;;;30.70;46.70;;;;;;5068718;28;19952;-63
2022/08/15 11:03:34;;;;;;;;;;;30.70;46.70;;;;;;5090918;28;19947;-63
2022/08/15 11:06:04;;;;;;;;;;;30.70;46.80;;;;;;5079298;28;19916;-63
2022/08/15 11:08:30;;;;;;;;;;;30.60;46.70;;;;;;5090582;28;20303;-62
2022/08/15 11:10:59;;;;;;;;;;;30.70;46.90;;;;;;5089256;28;19912;-62
2022/08/15 11:13:25;;;;;;;;;;;30.70;46.90;;;;;;5083149;28;19923;-62
2022/08/15 11:15:56;;;;;;;;;;;30.80;46.80;;;;;;5092584;28;19919;-63
2022/08/15 11:18:42;;;;;;;;;;;30.80;46.80;;;;;;5085151;28;19932;-63
2022/08/15 11:21:18;;;;;;;;;;;30.80;46.80;;;;;;5091334;28;20447;-63
2022/08/15 11:23:49;;;;;;;;;;;30.90;46.80;;;;;;5090922;28;19998;-62
2022/08/15 11:26:15;;;;;;;;;;;31.00;46.20;;;;;;5104102;28;19915;-63
2022/08/15 11:28:41;;;;;;;;;;;31.10;45.80;;;;;;5093091;28;20296;-63
2022/08/15 11:31:07;;;;;;;;;;;31.20;45.60;;;;;;5106207;28;20229;-63
2022/08/15 11:33:40;;;;;;;;;;;31.20;45.60;;;;;;5085200;28;19912;-63
2022/08/15 11:36:08;;;;;;;;;;;31.20;45.80;;;;;;5089376;28;19943;-62
2022/08/15 11:38:34;;;;;;;;;;;31.10;45.60;;;;;;5105387;28;19964;-63
2022/08/15 11:41:00;;;;;;;;;;;31.20;45.50;;;;;;5093230;28;20340;-63
2022/08/15 11:43:26;;;;;;;;;;;31.10;45.70;;;;;;5091928;28;19916;-64
2022/08/15 11:45:52;;;;;;;;;;;31.00;45.60;;;;;;5090183;28;20386;-64
2022/08/15 11:48:27;;;;;;;;;;;31.10;45.50;;;;;;5091832;28;19931;-63
2022/08/15 11:51:00;;;;;;;;;;;31.10;45.40;;;;;;5089054;28;19932;-63
2022/08/15 11:53:30;;;;;;;;;;;31.30;45.40;;;;;;5092165;28;19943;-62
2022/08/15 11:55:55;;;;;;;;;;;31.30;45.30;;;;;;5084980;28;20340;-63
2022/08/15 11:58:22;;;;;;;;;;;31.30;45.20;;;;;;5087193;28;20028;-63
2022/08/15 12:00:57;;;;;;;;;;;31.40;44.90;;;;;;5087868;28;19964;-63
2022/08/15 12:03:32;;;;;;;;;;;31.50;44.70;;;;;;5097224;28;19920;-64
2022/08/15 12:06:16;;;;;;;;;;;31.50;44.50;;;;;;5087645;28;20399;-64
2022/08/15 12:08:43;;;;;;;;;;;31.50;44.50;;;;;;5087286;28;19918;-63
2022/08/15 12:11:23;;;;;;;;;;;31.60;44.60;;;;;;5107651;28;20324;-63
2022/08/15 12:13:56;;;;;;;;;;;31.60;44.50;;;;;;5068057;28;19973;-63
2022/08/15 12:16:23;;;;;;;;;;;31.50;44.40;;;;;;5071615;28;19999;-63
2022/08/15 12:18:49;;;;;;;;;;;31.40;44.30;;;;;;5071720;28;19916;-63
2022/08/15 12:21:17;;;;;;;;;;;31.30;44.50;;;;;;5068539;28;22290;-63
2022/08/15 12:23:54;;;;;;;;;;;31.30;44.20;;;;;;5087223;28;19958;-63
2022/08/15 12:26:20;;;;;;;;;;;31.30;44.30;;;;;;5085864;28;20007;-63
2022/08/15 12:28:45;;;;;;;;;;;31.40;44.20;;;;;;5089378;28;20007;-64
2022/08/15 12:31:16;;;;;;;;;;;31.40;44.10;;;;;;5089012;28;19969;-63
2022/08/15 12:33:42;;;;;;;;;;;31.40;44.10;;;;;;5071382;28;19920;-63
2022/08/15 12:36:08;;;;;;;;;;;31.40;43.90;;;;;;5083939;28;19916;-64
2022/08/15 12:38:35;;;;;;;;;;;31.40;43.70;;;;;;5065824;28;20002;-65
2022/08/15 12:41:01;;;;;;;;;;;31.50;43.80;;;;;;5082659;28;19920;-65
2022/08/15 12:43:26;;;;;;;;;;;31.60;43.80;;;;;;5067954;28;19919;-64
2022/08/15 12:45:52;;;;;;;;;;;31.60;43.60;;;;;;5069412;28;19977;-63
2022/08/15 12:48:22;;;;;;;;;;;31.60;43.60;;;;;;5087902;28;20372;-63
2022/08/15 12:50:47;;;;;;;;;;;31.60;43.60;;;;;;5067302;28;19917;-64
2022/08/15 12:53:13;;;;;;;;;;;31.60;43.50;;;;;;5086572;28;19927;-63
2022/08/15 12:55:39;;;;;;;;;;;31.70;43.30;;;;;;5085552;28;19923;-63
2022/08/15 12:58:05;;;;;;;;;;;31.60;43.10;;;;;;5070548;28;19962;-63
2022/08/15 13:00:31;;;;;;;;;;;31.60;43.10;;;;;;5089239;28;20026;-62
2022/08/15 13:02:58;;;;;;;;;;;31.60;43.10;;;;;;5071548;28;19920;-63
2022/08/15 13:05:30;;;;;;;;;;;31.60;43.10;;;;;;5083872;28;19912;-64
2022/08/15 13:07:55;;;;;;;;;;;31.50;43.00;;;;;;5070870;28;19970;-65
2022/08/15 13:10:21;;;;;;;;;;;31.50;43.00;;;;;;5080962;28;19916;-64
2022/08/15 13:12:46;;;;;;;;;;;31.50;42.90;;;;;;5072593;28;19924;-63
2022/08/15 13:15:12;;;;;;;;;;;31.50;43.00;;;;;;5107403;28;20650;-63
2022/08/15 13:17:37;;;;;;;;;;;31.60;43.00;;;;;;5105820;28;20351;-64
2022/08/15 13:25:51;;;;;;;;;;;31.60;44.40;;;;;;4989948;28;19972;-63
2022/08/15 13:28:17;;;;;;;;;;;31.60;44.70;;;;;;5002503;28;20158;-62
2022/08/15 13:30:42;;;;;;;;;;;31.50;44.80;;;;;;5045739;28;19919;-63
2022/08/15 13:33:09;;;;;;;;;;;31.40;45.00;;;;;;5106446;28;19973;-64
2022/08/15 13:35:35;;;;;;;;;;;31.30;45.20;;;;;;5104708;28;19912;-63
2022/08/15 13:38:01;;;;;;;;;;;31.30;45.40;;;;;;5089667;28;19997;-64
2022/08/15 13:40:27;;;;;;;;;;;31.30;45.40;;;;;;5111417;28;20360;-63
2022/08/15 13:42:55;;;;;;;;;;;31.30;45.10;;;;;;5094448;28;19919;-63
2022/08/15 13:45:20;;;;;;;;;;;31.40;44.90;;;;;;5112171;28;19915;-62
2022/08/15 13:47:46;;;;;;;;;;;31.40;44.60;;;;;;5114706;28;19919;-63
2022/08/15 13:50:12;;;;;;;;;;;31.40;44.50;;;;;;5109623;28;19920;-64
2022/08/15 13:52:37;;;;;;;;;;;31.40;44.30;;;;;;5110148;28;19912;-62
2022/08/15 13:55:03;;;;;;;;;;;31.40;44.30;;;;;;5112001;27;19966;-63
2022/08/15 13:57:29;;;;;;;;;;;31.40;44.20;;;;;;5111343;28;19918;-63
2022/08/15 13:59:54;;;;;;;;;;;31.40;44.10;;;;;;5108463;28;20447;-63
2022/08/15 14:02:20;;;;;;;;;;;31.40;43.80;;;;;;5085498;28;19972;-64
2022/08/15 14:04:45;;;;;;;;;;;31.40;43.70;;;;;;5112502;28;20379;-64
2022/08/15 14:07:12;;;;;;;;;;;31.50;43.70;;;;;;5093848;28;19972;-63
2022/08/15 14:09:37;;;;;;;;;;;31.50;43.30;;;;;;5106228;28;20014;-63
2022/08/15 14:12:04;;;;;;;;;;;31.50;42.90;;;;;;5093195;28;20493;-63
2022/08/15 14:14:29;;;;;;;;;;;31.50;42.70;;;;;;5093035;28;19943;-63
2022/08/15 14:16:55;;;;;;;;;;;31.50;42.70;;;;;;5092659;28;20376;-63
2022/08/15 14:19:20;;;;;;;;;;;31.50;42.80;;;;;;5093219;28;19920;-63
2022/08/15 14:21:46;;;;;;;;;;;31.50;42.90;;;;;;5087188;28;19920;-63
2022/08/15 14:24:12;;;;;;;;;;;31.60;42.80;;;;;;5090163;28;19916;-64
2022/08/15 14:26:40;;;;;;;;;;;31.60;41.90;;;;;;5091533;28;19955;-64
2022/08/15 14:29:08;;;;;;;;;;;31.50;42.20;;;;;;5088998;28;20557;-64
2022/08/15 14:31:34;;;;;;;;;;;31.50;42.60;;;;;;5089317;28;20336;-62
2022/08/15 14:33:59;;;;;;;;;;;31.40;42.50;;;;;;5068044;28;19922;-62
2022/08/15 14:36:27;;;;;;;;;;;31.40;42.70;;;;;;5085288;28;19972;-63